Seattle, Washington
Traffic Map
Current Weather Conditions
Seattle, Washington
Overcast Light Rain
Overcast
11°
Feels Like: 11°
Wind Chill: 11° Ceiling: 3700
Heat Index: 11° Visibility: 8mi
Dew Point: Wind: 5mph
Humidity: 80% Direction: 90° (E)
Pressure: 29.73in Gusts: 0mph
Raw Report DataKBFI 180253Z 09004KT 8SM -RA FEW008 BKN037 OVC070 11/07 A2973 RMK AO2 SLP067 P0029 60043 T01060072 58016
Traffic Incident Summary
Active as of:
Severity:
Category:
InformationThere was an issue retrieving the traffic information for this location. Please try a different location or try again shortly.
Advertisements
At Last! Intellicast now available for iPhone and Android